sensor_id;sensor_type;location;lat;lon;timestamp;temperature;humidity
12634;DHT22;6382;48.614;8.880;2023-04-01T00:01:09;7.00;99.90
12634;DHT22;6382;48.614;8.880;2023-04-01T00:03:36;7.10;99.90
12634;DHT22;6382;48.614;8.880;2023-04-01T00:06:03;7.10;99.90
12634;DHT22;6382;48.614;8.880;2023-04-01T00:08:30;7.00;99.90
12634;DHT22;6382;48.614;8.880;2023-04-01T00:10:57;7.00;99.90
12634;DHT22;6382;48.614;8.880;2023-04-01T00:13:26;7.00;99.90
12634;DHT22;6382;48.614;8.880;2023-04-01T00:15:54;7.00;99.90
12634;DHT22;6382;48.614;8.880;2023-04-01T00:18:22;7.00;99.90
12634;DHT22;6382;48.614;8.880;2023-04-01T00:20:50;7.00;99.90
12634;DHT22;6382;48.614;8.880;2023-04-01T00:23:17;7.00;99.90
12634;DHT22;6382;48.614;8.880;2023-04-01T00:25:44;7.00;99.90
12634;DHT22;6382;48.614;8.880;2023-04-01T00:28:15;7.80;99.90
12634;DHT22;6382;48.614;8.880;2023-04-01T00:30:43;7.10;99.90
12634;DHT22;6382;48.614;8.880;2023-04-01T00:33:10;7.10;99.90
12634;DHT22;6382;48.614;8.880;2023-04-01T00:35:37;7.10;99.90
12634;DHT22;6382;48.614;8.880;2023-04-01T00:38:04;10.00;99.90
12634;DHT22;6382;48.614;8.880;2023-04-01T00:40:34;7.20;99.90
12634;DHT22;6382;48.614;8.880;2023-04-01T00:43:02;7.10;99.90
12634;DHT22;6382;48.614;8.880;2023-04-01T00:45:33;7.10;99.90
12634;DHT22;6382;48.614;8.880;2023-04-01T00:48:04;7.10;99.90
12634;DHT22;6382;48.614;8.880;2023-04-01T00:50:33;7.10;99.90
12634;DHT22;6382;48.614;8.880;2023-04-01T00:53:01;7.10;99.90
12634;DHT22;6382;48.614;8.880;2023-04-01T00:55:29;7.10;99.90
12634;DHT22;6382;48.614;8.880;2023-04-01T00:57:57;7.00;99.90
12634;DHT22;6382;48.614;8.880;2023-04-01T01:00:25;7.00;99.90
12634;DHT22;6382;48.614;8.880;2023-04-01T01:02:52;7.00;99.90
12634;DHT22;6382;48.614;8.880;2023-04-01T01:05:21;7.00;99.90
12634;DHT22;6382;48.614;8.880;2023-04-01T01:10:24;7.00;99.90
12634;DHT22;6382;48.614;8.880;2023-04-01T01:17:50;7.00;99.90
12634;DHT22;6382;48.614;8.880;2023-04-01T01:20:34;7.00;99.90
12634;DHT22;6382;48.614;8.880;2023-04-01T01:23:27;7.00;99.90
12634;DHT22;6382;48.614;8.880;2023-04-01T01:33:44;7.00;99.90
12634;DHT22;6382;48.614;8.880;2023-04-01T01:36:14;7.00;99.90
12634;DHT22;6382;48.614;8.880;2023-04-01T01:38:42;7.00;99.90
12634;DHT22;6382;48.614;8.880;2023-04-01T01:41:09;9.80;99.90
12634;DHT22;6382;48.614;8.880;2023-04-01T01:43:39;7.00;99.90
12634;DHT22;6382;48.614;8.880;2023-04-01T01:46:09;6.90;99.90
12634;DHT22;6382;48.614;8.880;2023-04-01T01:48:37;6.90;99.90
12634;DHT22;6382;48.614;8.880;2023-04-01T01:51:07;6.90;99.90
12634;DHT22;6382;48.614;8.880;2023-04-01T01:53:34;6.90;99.90
12634;DHT22;6382;48.614;8.880;2023-04-01T01:56:01;6.90;99.90
12634;DHT22;6382;48.614;8.880;2023-04-01T02:00:55;10.80;99.90
12634;DHT22;6382;48.614;8.880;2023-04-01T02:03:24;6.90;99.90
12634;DHT22;6382;48.614;8.880;2023-04-01T02:05:52;6.90;99.90
12634;DHT22;6382;48.614;8.880;2023-04-01T02:08:25;6.90;99.90
12634;DHT22;6382;48.614;8.880;2023-04-01T02:10:57;6.90;99.90
12634;DHT22;6382;48.614;8.880;2023-04-01T02:14:00;6.80;99.90
12634;DHT22;6382;48.614;8.880;2023-04-01T02:16:19;6.90;99.90
12634;DHT22;6382;48.614;8.880;2023-04-01T02:18:48;6.90;99.90
12634;DHT22;6382;48.614;8.880;2023-04-01T02:21:17;8.10;99.90
12634;DHT22;6382;48.614;8.880;2023-04-01T02:23:45;6.80;99.90
12634;DHT22;6382;48.614;8.880;2023-04-01T02:26:13;6.80;99.90
12634;DHT22;6382;48.614;8.880;2023-04-01T02:28:40;6.90;99.90
12634;DHT22;6382;48.614;8.880;2023-04-01T02:31:09;6.90;99.90
12634;DHT22;6382;48.614;8.880;2023-04-01T02:33:37;6.90;99.90
12634;DHT22;6382;48.614;8.880;2023-04-01T02:36:04;6.90;99.90
12634;DHT22;6382;48.614;8.880;2023-04-01T02:38:31;6.80;99.90
12634;DHT22;6382;48.614;8.880;2023-04-01T02:40:59;6.80;99.90
12634;DHT22;6382;48.614;8.880;2023-04-01T02:43:27;6.80;99.90
12634;DHT22;6382;48.614;8.880;2023-04-01T02:45:54;6.80;99.90
12634;DHT22;6382;48.614;8.880;2023-04-01T02:48:20;6.80;99.90
12634;DHT22;6382;48.614;8.880;2023-04-01T02:50:47;6.80;99.90
12634;DHT22;6382;48.614;8.880;2023-04-01T02:53:14;6.80;99.90
12634;DHT22;6382;48.614;8.880;2023-04-01T02:55:41;6.70;99.90
12634;DHT22;6382;48.614;8.880;2023-04-01T02:58:08;6.70;99.90
12634;DHT22;6382;48.614;8.880;2023-04-01T03:00:34;6.70;99.90
12634;DHT22;6382;48.614;8.880;2023-04-01T03:03:01;6.60;99.90
12634;DHT22;6382;48.614;8.880;2023-04-01T03:05:29;9.60;99.90
12634;DHT22;6382;48.614;8.880;2023-04-01T03:07:57;6.60;99.90
12634;DHT22;6382;48.614;8.880;2023-04-01T03:10:23;6.60;99.90
12634;DHT22;6382;48.614;8.880;2023-04-01T03:12:50;6.50;99.90
12634;DHT22;6382;48.614;8.880;2023-04-01T03:15:17;6.50;99.90
12634;DHT22;6382;48.614;8.880;2023-04-01T03:17:44;6.50;99.90
12634;DHT22;6382;48.614;8.880;2023-04-01T03:20:11;6.50;99.90
12634;DHT22;6382;48.614;8.880;2023-04-01T03:22:38;6.50;99.90
12634;DHT22;6382;48.614;8.880;2023-04-01T03:25:08;6.60;99.90
12634;DHT22;6382;48.614;8.880;2023-04-01T03:27:36;6.50;99.90
12634;DHT22;6382;48.614;8.880;2023-04-01T03:30:03;6.50;99.90
12634;DHT22;6382;48.614;8.880;2023-04-01T03:32:30;6.50;99.90
12634;DHT22;6382;48.614;8.880;2023-04-01T03:34:57;6.50;99.90
12634;DHT22;6382;48.614;8.880;2023-04-01T03:37:24;6.50;99.90
12634;DHT22;6382;48.614;8.880;2023-04-01T03:39:51;7.70;99.90
12634;DHT22;6382;48.614;8.880;2023-04-01T03:42:18;6.40;99.90
12634;DHT22;6382;48.614;8.880;2023-04-01T03:44:45;6.50;99.90
12634;DHT22;6382;48.614;8.880;2023-04-01T03:47:11;6.50;99.90
12634;DHT22;6382;48.614;8.880;2023-04-01T03:49:38;6.50;99.90
12634;DHT22;6382;48.614;8.880;2023-04-01T03:52:07;6.50;99.90
12634;DHT22;6382;48.614;8.880;2023-04-01T03:54:34;6.50;99.90
12634;DHT22;6382;48.614;8.880;2023-04-01T03:57:01;6.50;99.90
12634;DHT22;6382;48.614;8.880;2023-04-01T03:59:27;8.90;99.90
12634;DHT22;6382;48.614;8.880;2023-04-01T04:01:54;6.50;99.90
12634;DHT22;6382;48.614;8.880;2023-04-01T04:04:21;6.50;99.90
12634;DHT22;6382;48.614;8.880;2023-04-01T04:06:49;6.40;99.90
12634;DHT22;6382;48.614;8.880;2023-04-01T04:09:17;6.30;99.90
12634;DHT22;6382;48.614;8.880;2023-04-01T04:11:44;6.30;99.90
12634;DHT22;6382;48.614;8.880;2023-04-01T04:14:10;7.60;99.90
12634;DHT22;6382;48.614;8.880;2023-04-01T04:16:37;6.30;99.90
12634;DHT22;6382;48.614;8.880;2023-04-01T04:19:04;6.20;99.90
12634;DHT22;6382;48.614;8.880;2023-04-01T04:21:31;6.10;99.90
12634;DHT22;6382;48.614;8.880;2023-04-01T04:24:01;6.10;99.90
12634;DHT22;6382;48.614;8.880;2023-04-01T04:26:27;6.10;99.90
12634;DHT22;6382;48.614;8.880;2023-04-01T04:28:54;6.10;99.90
12634;DHT22;6382;48.614;8.880;2023-04-01T04:31:22;6.10;99.90
12634;DHT22;6382;48.614;8.880;2023-04-01T04:33:49;6.10;99.90
12634;DHT22;6382;48.614;8.880;2023-04-01T04:36:17;6.10;99.90
12634;DHT22;6382;48.614;8.880;2023-04-01T04:38:44;6.10;99.90
12634;DHT22;6382;48.614;8.880;2023-04-01T04:41:15;6.20;99.90
12634;DHT22;6382;48.614;8.880;2023-04-01T04:43:51;6.20;99.90
12634;DHT22;6382;48.614;8.880;2023-04-01T04:46:18;6.20;99.90
12634;DHT22;6382;48.614;8.880;2023-04-01T04:48:45;6.30;99.90
12634;DHT22;6382;48.614;8.880;2023-04-01T04:51:12;6.30;99.90
12634;DHT22;6382;48.614;8.880;2023-04-01T04:53:39;6.40;99.90
12634;DHT22;6382;48.614;8.880;2023-04-01T04:56:06;6.40;99.90
12634;DHT22;6382;48.614;8.880;2023-04-01T04:58:33;6.40;99.90
12634;DHT22;6382;48.614;8.880;2023-04-01T05:01:05;6.50;99.90
12634;DHT22;6382;48.614;8.880;2023-04-01T05:03:32;6.50;99.90
12634;DHT22;6382;48.614;8.880;2023-04-01T05:05:59;6.50;99.90
12634;DHT22;6382;48.614;8.880;2023-04-01T05:08:26;6.60;99.90
12634;DHT22;6382;48.614;8.880;2023-04-01T05:10:53;6.60;99.90
12634;DHT22;6382;48.614;8.880;2023-04-01T05:13:20;6.60;99.90
12634;DHT22;6382;48.614;8.880;2023-04-01T05:15:46;6.60;99.90
12634;DHT22;6382;48.614;8.880;2023-04-01T05:18:13;6.70;99.90
12634;DHT22;6382;48.614;8.880;2023-04-01T05:20:45;6.60;99.90
12634;DHT22;6382;48.614;8.880;2023-04-01T05:23:12;6.70;99.90
12634;DHT22;6382;48.614;8.880;2023-04-01T05:25:38;6.70;99.90
12634;DHT22;6382;48.614;8.880;2023-04-01T05:28:06;8.80;99.90
12634;DHT22;6382;48.614;8.880;2023-04-01T05:30:32;6.80;99.90
12634;DHT22;6382;48.614;8.880;2023-04-01T05:32:59;6.80;99.90
12634;DHT22;6382;48.614;8.880;2023-04-01T05:35:26;9.50;99.90
12634;DHT22;6382;48.614;8.880;2023-04-01T05:37:53;6.80;99.90
12634;DHT22;6382;48.614;8.880;2023-04-01T05:40:19;6.80;99.90
12634;DHT22;6382;48.614;8.880;2023-04-01T05:42:46;9.40;99.90
12634;DHT22;6382;48.614;8.880;2023-04-01T05:45:13;6.90;99.90
12634;DHT22;6382;48.614;8.880;2023-04-01T05:47:42;6.90;99.90
12634;DHT22;6382;48.614;8.880;2023-04-01T05:50:09;6.90;99.90
12634;DHT22;6382;48.614;8.880;2023-04-01T05:52:37;7.00;99.90
12634;DHT22;6382;48.614;8.880;2023-04-01T05:55:05;7.00;99.90
12634;DHT22;6382;48.614;8.880;2023-04-01T05:57:32;6.90;99.90
12634;DHT22;6382;48.614;8.880;2023-04-01T05:59:59;10.50;99.90
12634;DHT22;6382;48.614;8.880;2023-04-01T06:02:25;7.10;99.90
12634;DHT22;6382;48.614;8.880;2023-04-01T06:04:54;7.10;99.90
12634;DHT22;6382;48.614;8.880;2023-04-01T06:07:23;7.10;99.90
12634;DHT22;6382;48.614;8.880;2023-04-01T06:09:49;7.10;99.90
12634;DHT22;6382;48.614;8.880;2023-04-01T06:12:31;9.20;99.90
12634;DHT22;6382;48.614;8.880;2023-04-01T06:17:48;7.20;99.90
12634;DHT22;6382;48.614;8.880;2023-04-01T06:33:41;7.30;99.90
12634;DHT22;6382;48.614;8.880;2023-04-01T06:36:15;7.30;99.90
12634;DHT22;6382;48.614;8.880;2023-04-01T06:38:50;7.30;99.90
12634;DHT22;6382;48.614;8.880;2023-04-01T06:46:37;7.30;99.90
12634;DHT22;6382;48.614;8.880;2023-04-01T06:51:45;7.40;99.90
12634;DHT22;6382;48.614;8.880;2023-04-01T06:54:18;8.20;99.90
12634;DHT22;6382;48.614;8.880;2023-04-01T06:56:48;7.50;99.90
12634;DHT22;6382;48.614;8.880;2023-04-01T06:59:17;7.60;99.90
12634;DHT22;6382;48.614;8.880;2023-04-01T07:01:46;10.20;99.90
12634;DHT22;6382;48.614;8.880;2023-04-01T07:04:15;7.50;99.90
12634;DHT22;6382;48.614;8.880;2023-04-01T07:06:47;7.60;99.90
12634;DHT22;6382;48.614;8.880;2023-04-01T07:09:25;9.50;99.90
12634;DHT22;6382;48.614;8.880;2023-04-01T07:11:53;7.60;99.90
12634;DHT22;6382;48.614;8.880;2023-04-01T07:14:24;7.70;99.90
12634;DHT22;6382;48.614;8.880;2023-04-01T07:16:54;7.60;99.90
12634;DHT22;6382;48.614;8.880;2023-04-01T07:22:17;7.70;99.90
12634;DHT22;6382;48.614;8.880;2023-04-01T07:24:46;7.70;99.90
12634;DHT22;6382;48.614;8.880;2023-04-01T07:27:13;7.70;99.90
12634;DHT22;6382;48.614;8.880;2023-04-01T07:29:40;7.80;99.90
12634;DHT22;6382;48.614;8.880;2023-04-01T07:39:36;7.90;99.90
12634;DHT22;6382;48.614;8.880;2023-04-01T07:44:44;7.90;99.90
12634;DHT22;6382;48.614;8.880;2023-04-01T07:47:20;8.00;99.90
12634;DHT22;6382;48.614;8.880;2023-04-01T07:52:56;8.00;99.90
12634;DHT22;6382;48.614;8.880;2023-04-01T07:58:10;8.10;99.90
12634;DHT22;6382;48.614;8.880;2023-04-01T08:03:09;8.20;99.90
12634;DHT22;6382;48.614;8.880;2023-04-01T08:10:48;8.10;99.90
12634;DHT22;6382;48.614;8.880;2023-04-01T08:13:32;8.20;99.90
12634;DHT22;6382;48.614;8.880;2023-04-01T08:16:19;8.10;99.90
12634;DHT22;6382;48.614;8.880;2023-04-01T08:18:51;8.00;99.90
12634;DHT22;6382;48.614;8.880;2023-04-01T08:21:25;8.10;99.90
12634;DHT22;6382;48.614;8.880;2023-04-01T08:23:56;8.10;99.90
12634;DHT22;6382;48.614;8.880;2023-04-01T08:26:26;8.10;99.90
12634;DHT22;6382;48.614;8.880;2023-04-01T08:29:00;8.00;99.90
12634;DHT22;6382;48.614;8.880;2023-04-01T08:31:31;7.90;99.90
12634;DHT22;6382;48.614;8.880;2023-04-01T08:33:59;8.00;99.90
12634;DHT22;6382;48.614;8.880;2023-04-01T08:36:28;10.40;99.90
12634;DHT22;6382;48.614;8.880;2023-04-01T08:39:02;8.00;99.90
12634;DHT22;6382;48.614;8.880;2023-04-01T08:54:44;8.10;99.90
12634;DHT22;6382;48.614;8.880;2023-04-01T09:15:15;8.60;99.90
12634;DHT22;6382;48.614;8.880;2023-04-01T09:25:45;8.80;99.90
12634;DHT22;6382;48.614;8.880;2023-04-01T09:28:24;8.80;99.90
12634;DHT22;6382;48.614;8.880;2023-04-01T09:31:15;8.90;99.90
12634;DHT22;6382;48.614;8.880;2023-04-01T09:33:50;8.90;99.90
12634;DHT22;6382;48.614;8.880;2023-04-01T09:37:03;8.90;99.90
12634;DHT22;6382;48.614;8.880;2023-04-01T09:39:45;9.00;99.90
12634;DHT22;6382;48.614;8.880;2023-04-01T09:58:09;9.00;99.90
12634;DHT22;6382;48.614;8.880;2023-04-01T10:03:40;8.90;99.90
12634;DHT22;6382;48.614;8.880;2023-04-01T10:06:20;8.80;99.90
12634;DHT22;6382;48.614;8.880;2023-04-01T10:14:19;12.10;99.90
12634;DHT22;6382;48.614;8.880;2023-04-01T10:38:08;9.20;99.90
12634;DHT22;6382;48.614;8.880;2023-04-01T10:46:17;9.50;99.90
12634;DHT22;6382;48.614;8.880;2023-04-01T10:56:49;9.80;99.90
12634;DHT22;6382;48.614;8.880;2023-04-01T11:12:33;9.60;99.90
12634;DHT22;6382;48.614;8.880;2023-04-01T11:15:07;9.70;99.90
12634;DHT22;6382;48.614;8.880;2023-04-01T11:17:49;11.90;99.90
12634;DHT22;6382;48.614;8.880;2023-04-01T11:20:31;9.80;99.90
12634;DHT22;6382;48.614;8.880;2023-04-01T11:46:56;10.10;99.90
12634;DHT22;6382;48.614;8.880;2023-04-01T11:54:38;10.30;99.90
12634;DHT22;6382;48.614;8.880;2023-04-01T11:59:56;10.30;99.90
12634;DHT22;6382;48.614;8.880;2023-04-01T12:10:17;10.40;99.90
12634;DHT22;6382;48.614;8.880;2023-04-01T12:12:48;10.40;99.90
12634;DHT22;6382;48.614;8.880;2023-04-01T12:15:47;11.60;99.90
12634;DHT22;6382;48.614;8.880;2023-04-01T12:18:36;10.30;99.90
12634;DHT22;6382;48.614;8.880;2023-04-01T12:21:14;10.40;99.90
12634;DHT22;6382;48.614;8.880;2023-04-01T12:52:11;10.80;99.90
12634;DHT22;6382;48.614;8.880;2023-04-01T12:54:44;10.90;99.90
12634;DHT22;6382;48.614;8.880;2023-04-01T13:00:10;11.20;99.90
12634;DHT22;6382;48.614;8.880;2023-04-01T13:13:33;11.10;99.90
12634;DHT22;6382;48.614;8.880;2023-04-01T13:16:03;10.90;99.90
12634;DHT22;6382;48.614;8.880;2023-04-01T13:18:47;10.70;99.90
12634;DHT22;6382;48.614;8.880;2023-04-01T13:21:19;10.70;99.90
12634;DHT22;6382;48.614;8.880;2023-04-01T13:26:34;10.40;99.90
12634;DHT22;6382;48.614;8.880;2023-04-01T13:29:16;10.40;99.90
12634;DHT22;6382;48.614;8.880;2023-04-01T13:37:05;10.40;99.90
12634;DHT22;6382;48.614;8.880;2023-04-01T13:42:20;10.30;99.90
12634;DHT22;6382;48.614;8.880;2023-04-01T13:44:48;10.20;99.90
12634;DHT22;6382;48.614;8.880;2023-04-01T13:47:59;10.20;99.90
12634;DHT22;6382;48.614;8.880;2023-04-01T13:52:46;10.40;99.90
12634;DHT22;6382;48.614;8.880;2023-04-01T13:58:20;10.50;99.90
12634;DHT22;6382;48.614;8.880;2023-04-01T14:06:20;10.60;99.90
12634;DHT22;6382;48.614;8.880;2023-04-01T14:09:03;10.60;99.90
12634;DHT22;6382;48.614;8.880;2023-04-01T14:11:40;10.60;99.90
12634;DHT22;6382;48.614;8.880;2023-04-01T14:14:26;10.60;99.90
12634;DHT22;6382;48.614;8.880;2023-04-01T14:17:01;10.60;99.90
12634;DHT22;6382;48.614;8.880;2023-04-01T14:19:44;13.00;99.90
12634;DHT22;6382;48.614;8.880;2023-04-01T14:22:20;10.60;99.90
12634;DHT22;6382;48.614;8.880;2023-04-01T14:25:04;10.50;99.90
12634;DHT22;6382;48.614;8.880;2023-04-01T14:30:20;11.30;99.90
12634;DHT22;6382;48.614;8.880;2023-04-01T14:51:48;13.30;99.90
12634;DHT22;6382;48.614;8.880;2023-04-01T14:54:31;10.50;99.90
12634;DHT22;6382;48.614;8.880;2023-04-01T14:57:10;10.50;99.90
12634;DHT22;6382;48.614;8.880;2023-04-01T14:59:40;10.40;99.90
12634;DHT22;6382;48.614;8.880;2023-04-01T15:12:34;10.60;99.90
12634;DHT22;6382;48.614;8.880;2023-04-01T15:15:14;10.70;99.90
12634;DHT22;6382;48.614;8.880;2023-04-01T15:17:58;10.60;99.90
12634;DHT22;6382;48.614;8.880;2023-04-01T15:28:21;10.70;99.90
12634;DHT22;6382;48.614;8.880;2023-04-01T15:36:20;10.40;99.90
12634;DHT22;6382;48.614;8.880;2023-04-01T15:38:51;10.30;99.90
12634;DHT22;6382;48.614;8.880;2023-04-01T15:44:26;10.10;99.90
12634;DHT22;6382;48.614;8.880;2023-04-01T15:46:58;10.10;99.90
12634;DHT22;6382;48.614;8.880;2023-04-01T15:49:34;11.00;99.90
12634;DHT22;6382;48.614;8.880;2023-04-01T15:52:15;9.90;99.90
12634;DHT22;6382;48.614;8.880;2023-04-01T15:54:58;9.90;99.90
12634;DHT22;6382;48.614;8.880;2023-04-01T16:02:29;9.90;99.90
12634;DHT22;6382;48.614;8.880;2023-04-01T16:12:57;9.90;99.90
12634;DHT22;6382;48.614;8.880;2023-04-01T16:15:33;9.90;99.90
12634;DHT22;6382;48.614;8.880;2023-04-01T16:20:57;9.90;99.90
12634;DHT22;6382;48.614;8.880;2023-04-01T16:23:37;9.90;99.90
12634;DHT22;6382;48.614;8.880;2023-04-01T16:26:18;9.90;99.90
12634;DHT22;6382;48.614;8.880;2023-04-01T16:39:09;9.70;99.90
12634;DHT22;6382;48.614;8.880;2023-04-01T16:41:49;9.70;99.90
12634;DHT22;6382;48.614;8.880;2023-04-01T16:44:22;9.70;99.90
12634;DHT22;6382;48.614;8.880;2023-04-01T16:46:54;9.70;99.90
12634;DHT22;6382;48.614;8.880;2023-04-01T16:49:28;9.70;99.90
12634;DHT22;6382;48.614;8.880;2023-04-01T16:52:04;9.60;99.90
12634;DHT22;6382;48.614;8.880;2023-04-01T16:57:36;7.00;99.90
12634;DHT22;6382;48.614;8.880;2023-04-01T17:00:18;9.60;99.90
12634;DHT22;6382;48.614;8.880;2023-04-01T17:02:57;9.60;99.90
12634;DHT22;6382;48.614;8.880;2023-04-01T17:18:50;9.20;99.90
12634;DHT22;6382;48.614;8.880;2023-04-01T17:23:50;9.10;99.90
12634;DHT22;6382;48.614;8.880;2023-04-01T17:28:59;9.00;99.90
12634;DHT22;6382;48.614;8.880;2023-04-01T17:42:09;8.80;99.90
12634;DHT22;6382;48.614;8.880;2023-04-01T17:47:21;8.80;99.90
12634;DHT22;6382;48.614;8.880;2023-04-01T17:50:02;8.80;99.90
12634;DHT22;6382;48.614;8.880;2023-04-01T17:57:39;8.70;99.90
12634;DHT22;6382;48.614;8.880;2023-04-01T18:08:09;8.60;99.90
12634;DHT22;6382;48.614;8.880;2023-04-01T18:18:48;8.00;99.90
12634;DHT22;6382;48.614;8.880;2023-04-01T18:23:58;7.90;99.90
12634;DHT22;6382;48.614;8.880;2023-04-01T18:26:35;10.40;99.90
12634;DHT22;6382;48.614;8.880;2023-04-01T18:29:09;7.80;99.90
12634;DHT22;6382;48.614;8.880;2023-04-01T18:31:39;10.10;99.90
12634;DHT22;6382;48.614;8.880;2023-04-01T18:34:18;7.70;99.90
12634;DHT22;6382;48.614;8.880;2023-04-01T18:39:17;9.80;99.90
12634;DHT22;6382;48.614;8.880;2023-04-01T18:47:18;7.50;99.90
12634;DHT22;6382;48.614;8.880;2023-04-01T18:52:36;7.40;99.90
12634;DHT22;6382;48.614;8.880;2023-04-01T18:57:46;7.40;99.90
12634;DHT22;6382;48.614;8.880;2023-04-01T19:00:17;7.30;99.90
12634;DHT22;6382;48.614;8.880;2023-04-01T19:03:01;7.20;99.90
12634;DHT22;6382;48.614;8.880;2023-04-01T19:05:39;7.10;99.90
12634;DHT22;6382;48.614;8.880;2023-04-01T19:16:10;6.80;99.90
12634;DHT22;6382;48.614;8.880;2023-04-01T19:23:53;6.60;99.90
12634;DHT22;6382;48.614;8.880;2023-04-01T19:26:42;6.60;99.90
12634;DHT22;6382;48.614;8.880;2023-04-01T19:36:59;6.40;99.90
12634;DHT22;6382;48.614;8.880;2023-04-01T19:39:37;6.40;99.90
12634;DHT22;6382;48.614;8.880;2023-04-01T19:42:16;6.40;99.90
12634;DHT22;6382;48.614;8.880;2023-04-01T19:54:53;6.20;99.90
12634;DHT22;6382;48.614;8.880;2023-04-01T19:57:25;6.20;99.90
12634;DHT22;6382;48.614;8.880;2023-04-01T19:59:56;6.20;99.90
12634;DHT22;6382;48.614;8.880;2023-04-01T20:04:56;6.10;99.90
12634;DHT22;6382;48.614;8.880;2023-04-01T20:07:37;6.10;99.90
12634;DHT22;6382;48.614;8.880;2023-04-01T20:10:14;6.10;99.90
12634;DHT22;6382;48.614;8.880;2023-04-01T20:17:55;6.20;99.90
12634;DHT22;6382;48.614;8.880;2023-04-01T20:20:24;6.30;99.90
12634;DHT22;6382;48.614;8.880;2023-04-01T20:22:55;6.30;99.90
12634;DHT22;6382;48.614;8.880;2023-04-01T20:36:20;6.50;99.90
12634;DHT22;6382;48.614;8.880;2023-04-01T20:41:40;6.60;99.90
12634;DHT22;6382;48.614;8.880;2023-04-01T20:46:45;6.70;99.90
12634;DHT22;6382;48.614;8.880;2023-04-01T20:52:08;6.70;99.90
12634;DHT22;6382;48.614;8.880;2023-04-01T20:54:52;6.70;99.90
12634;DHT22;6382;48.614;8.880;2023-04-01T21:00:22;6.80;99.90
12634;DHT22;6382;48.614;8.880;2023-04-01T21:06:40;6.80;99.90
12634;DHT22;6382;48.614;8.880;2023-04-01T21:08:39;6.80;99.90
12634;DHT22;6382;48.614;8.880;2023-04-01T21:11:16;6.90;99.90
12634;DHT22;6382;48.614;8.880;2023-04-01T21:13:51;6.90;99.90
12634;DHT22;6382;48.614;8.880;2023-04-01T21:34:07;6.90;99.90
12634;DHT22;6382;48.614;8.880;2023-04-01T21:36:47;6.90;99.90
12634;DHT22;6382;48.614;8.880;2023-04-01T21:44:30;6.90;99.90
12634;DHT22;6382;48.614;8.880;2023-04-01T21:52:30;6.80;99.90
12634;DHT22;6382;48.614;8.880;2023-04-01T22:00:13;6.80;99.90
12634;DHT22;6382;48.614;8.880;2023-04-01T22:05:20;6.80;99.90
12634;DHT22;6382;48.614;8.880;2023-04-01T22:12:45;6.70;99.90
12634;DHT22;6382;48.614;8.880;2023-04-01T22:18:02;6.60;99.90
12634;DHT22;6382;48.614;8.880;2023-04-01T22:20:40;6.60;99.90
12634;DHT22;6382;48.614;8.880;2023-04-01T22:23:19;6.50;99.90
12634;DHT22;6382;48.614;8.880;2023-04-01T22:31:00;6.40;99.90
12634;DHT22;6382;48.614;8.880;2023-04-01T22:41:17;6.20;99.90
12634;DHT22;6382;48.614;8.880;2023-04-01T22:43:48;6.20;99.90
12634;DHT22;6382;48.614;8.880;2023-04-01T22:49:07;6.10;99.90
12634;DHT22;6382;48.614;8.880;2023-04-01T22:51:42;6.10;99.90
12634;DHT22;6382;48.614;8.880;2023-04-01T22:54:17;6.00;99.90
12634;DHT22;6382;48.614;8.880;2023-04-01T22:56:46;6.00;99.90
12634;DHT22;6382;48.614;8.880;2023-04-01T23:01:52;6.00;99.90
12634;DHT22;6382;48.614;8.880;2023-04-01T23:04:22;6.00;99.90
12634;DHT22;6382;48.614;8.880;2023-04-01T23:06:52;6.00;99.90
12634;DHT22;6382;48.614;8.880;2023-04-01T23:09:27;6.00;99.90
12634;DHT22;6382;48.614;8.880;2023-04-01T23:11:55;6.00;99.90
12634;DHT22;6382;48.614;8.880;2023-04-01T23:14:29;6.00;99.90
12634;DHT22;6382;48.614;8.880;2023-04-01T23:19:48;5.90;99.90
12634;DHT22;6382;48.614;8.880;2023-04-01T23:27:29;5.90;99.90
12634;DHT22;6382;48.614;8.880;2023-04-01T23:29:58;5.90;99.90
12634;DHT22;6382;48.614;8.880;2023-04-01T23:32:25;6.00;99.90
12634;DHT22;6382;48.614;8.880;2023-04-01T23:34:57;6.00;99.90
12634;DHT22;6382;48.614;8.880;2023-04-01T23:37:24;6.00;99.90
12634;DHT22;6382;48.614;8.880;2023-04-01T23:39:55;6.00;99.90
12634;DHT22;6382;48.614;8.880;2023-04-01T23:42:30;6.00;99.90
12634;DHT22;6382;48.614;8.880;2023-04-01T23:44:58;6.00;99.90
12634;DHT22;6382;48.614;8.880;2023-04-01T23:47:31;5.90;99.90
12634;DHT22;6382;48.614;8.880;2023-04-01T23:50:01;5.90;99.90
12634;DHT22;6382;48.614;8.880;2023-04-01T23:52:31;9.80;99.90
12634;DHT22;6382;48.614;8.880;2023-04-01T23:55:03;6.00;99.90
12634;DHT22;6382;48.614;8.880;2023-04-01T23:57:31;6.60;99.90
